KRE523 SVVL-SVMG
Flight info
| Callsign | KRE523 |
|---|---|
| Flight time | N/A |
| Altitude | 27000 |
| Route | ISMIV DCT DONTA DCT COR DCT PBL DCT MIQ W19 CHALO EKONU |
| Aircraft | B722/M-SDFGHRWY/C |
Departure
| Time | 2026-04-13 21:34 |
|---|---|
| Airport | Dr. Antonio Nicolás Briceño Airport (SVVL) |
Arrival
| Time | N/A |
|---|---|
| Airport | Del Caribe Santiago Mariño International Airport (SVMG) |
| Time | Latitude | Longitude | Altitude | Speed | Heading |
|---|---|---|---|---|---|
| 2026-04-13 21:06 | 9.33962 | -70.58616 | 1898 ft | 0 kts | 242° |
| 2026-04-13 21:27 | 9.33961 | -70.58619 | 1898 ft | 0 kts | 242° |
| 2026-04-13 21:27 | 9.33960 | -70.58620 | 1898 ft | 0 kts | 241° |
| 2026-04-13 21:28 | 9.33959 | -70.58623 | 1898 ft | 1 kts | 241° |
| 2026-04-13 21:28 | 9.33953 | -70.58633 | 1899 ft | 0 kts | 242° |
| 2026-04-13 21:28 | 9.33953 | -70.58634 | 1899 ft | 0 kts | 242° |
| 2026-04-13 21:28 | 9.33952 | -70.58635 | 1899 ft | 0 kts | 229° |
| 2026-04-13 21:29 | 9.33941 | -70.58632 | 1899 ft | 2 kts | 91° |
| 2026-04-13 21:29 | 9.33957 | -70.58599 | 1898 ft | 9 kts | 58° |
| 2026-04-13 21:29 | 9.33983 | -70.58553 | 1896 ft | 7 kts | 88° |
| 2026-04-13 21:29 | 9.33983 | -70.58548 | 1896 ft | 0 kts | 97° |
| 2026-04-13 21:30 | 9.33982 | -70.58546 | 1896 ft | 2 kts | 97° |
| 2026-04-13 21:30 | 9.33965 | -70.58491 | 1896 ft | 15 kts | 135° |
| 2026-04-13 21:30 | 9.33840 | -70.58508 | 1903 ft | 16 kts | 198° |
| 2026-04-13 21:31 | 9.33746 | -70.58540 | 1910 ft | 12 kts | 198° |
| 2026-04-13 21:31 | 9.33687 | -70.58559 | 1913 ft | 9 kts | 195° |
| 2026-04-13 21:31 | 9.33561 | -70.58594 | 1920 ft | 28 kts | 196° |
| 2026-04-13 21:31 | 9.33331 | -70.58659 | 1933 ft | 24 kts | 188° |
| 2026-04-13 21:32 | 9.33303 | -70.58664 | 1934 ft | 7 kts | 188° |
| 2026-04-13 21:32 | 9.33231 | -70.58681 | 1938 ft | 4 kts | 240° |
| 2026-04-13 21:32 | 9.33254 | -70.58689 | 1937 ft | 0 kts | 15° |
| 2026-04-13 21:33 | 9.33267 | -70.58685 | 1936 ft | 12 kts | 15° |
| 2026-04-13 21:33 | 9.33567 | -70.58592 | 1920 ft | 78 kts | 17° |
| 2026-04-13 21:33 | 9.34286 | -70.58369 | 1871 ft | 137 kts | 17° |
| 2026-04-13 21:34 | 9.36344 | -70.57692 | 2369 ft | 159 kts | 20° |
| 2026-04-13 21:34 | 9.37353 | -70.57367 | 2841 ft | 152 kts | 15° |
| 2026-04-13 21:34 | 9.38412 | -70.57069 | 3028 ft | 166 kts | 15° |
| 2026-04-13 21:34 | 9.39528 | -70.56754 | 3401 ft | 167 kts | 15° |
| 2026-04-13 21:35 | 9.40646 | -70.56439 | 3788 ft | 166 kts | 15° |
| 2026-04-13 21:35 | 9.41762 | -70.56139 | 4108 ft | 174 kts | 13° |
| 2026-04-13 21:35 | 9.44443 | -70.55559 | 4067 ft | 217 kts | 12° |
| 2026-04-13 21:36 | 9.45933 | -70.55240 | 4459 ft | 208 kts | 12° |
| 2026-04-13 21:36 | 9.47189 | -70.54968 | 5412 ft | 179 kts | 12° |
| 2026-04-13 21:36 | 9.48390 | -70.54705 | 5969 ft | 177 kts | 12° |
| 2026-04-13 21:36 | 9.49561 | -70.54443 | 6542 ft | 172 kts | 12° |
| 2026-04-13 21:37 | 9.50726 | -70.54178 | 6995 ft | 173 kts | 16° |
| 2026-04-13 21:37 | 9.51763 | -70.53568 | 7370 ft | 176 kts | 33° |
| 2026-04-13 21:37 | 9.52899 | -70.52895 | 7308 ft | 219 kts | 25° |
| 2026-04-13 21:37 | 9.54505 | -70.52163 | 6757 ft | 280 kts | 31° |
| 2026-04-13 21:38 | 9.56203 | -70.51073 | 7424 ft | 292 kts | 32° |
| 2026-04-13 21:38 | 9.57838 | -70.49953 | 8539 ft | 288 kts | 34° |
| 2026-04-13 21:38 | 9.59460 | -70.48798 | 9496 ft | 288 kts | 35° |
| 2026-04-13 21:38 | 9.61109 | -70.47611 | 10295 ft | 294 kts | 35° |
| 2026-04-13 21:39 | 9.62767 | -70.46414 | 11071 ft | 299 kts | 35° |
| 2026-04-13 21:39 | 9.64468 | -70.45184 | 11841 ft | 303 kts | 34° |
| 2026-04-13 21:39 | 9.66194 | -70.43960 | 12503 ft | 311 kts | 38° |
| 2026-04-13 21:39 | 9.67948 | -70.42673 | 13272 ft | 316 kts | 34° |
| 2026-04-13 21:40 | 9.69718 | -70.41390 | 14165 ft | 315 kts | 31° |
| 2026-04-13 21:40 | 9.71519 | -70.40091 | 14651 ft | 328 kts | 34° |
| 2026-04-13 21:40 | 9.73475 | -70.38690 | 14625 ft | 353 kts | 36° |
| 2026-04-13 21:40 | 9.75499 | -70.37199 | 14645 ft | 375 kts | 30° |
| 2026-04-13 21:41 | 9.77662 | -70.35677 | 15373 ft | 381 kts | 38° |
| 2026-04-13 21:41 | 9.79827 | -70.34103 | 16335 ft | 378 kts | 36° |
| 2026-04-13 21:41 | 9.82008 | -70.32524 | 16885 ft | 385 kts | 34° |
| 2026-04-13 21:41 | 9.84172 | -70.30951 | 17448 ft | 392 kts | 34° |
| 2026-04-13 21:42 | 9.86396 | -70.29333 | 18074 ft | 396 kts | 34° |
| 2026-04-13 21:42 | 9.88633 | -70.27716 | 18689 ft | 399 kts | 34° |
| 2026-04-13 21:42 | 9.90898 | -70.26072 | 19266 ft | 403 kts | 34° |
| 2026-04-13 21:42 | 9.93181 | -70.24425 | 19816 ft | 407 kts | 34° |
| 2026-04-13 21:43 | 9.95478 | -70.22760 | 20353 ft | 411 kts | 34° |
| 2026-04-13 21:43 | 9.97809 | -70.21075 | 20874 ft | 415 kts | 34° |
| 2026-04-13 21:43 | 10.00173 | -70.19357 | 21392 ft | 419 kts | 34° |
| 2026-04-13 21:43 | 10.02554 | -70.17632 | 21881 ft | 422 kts | 34° |
| 2026-04-13 21:44 | 10.04930 | -70.15914 | 22353 ft | 426 kts | 34° |
| 2026-04-13 21:44 | 10.07451 | -70.14381 | 22771 ft | 425 kts | 19° |
| 2026-04-13 21:44 | 10.10334 | -70.13703 | 23182 ft | 423 kts | 1° |
| 2026-04-13 21:44 | 10.13248 | -70.13943 | 23594 ft | 419 kts | 345° |
| 2026-04-13 21:45 | 10.16116 | -70.14504 | 24030 ft | 422 kts | 347° |
| 2026-04-13 21:45 | 10.19015 | -70.15050 | 24477 ft | 425 kts | 346° |
| 2026-04-13 21:45 | 10.21896 | -70.15591 | 24899 ft | 427 kts | 347° |
| 2026-04-13 21:45 | 10.24869 | -70.15926 | 25267 ft | 433 kts | 0° |
| 2026-04-13 21:46 | 10.27825 | -70.15337 | 25589 ft | 441 kts | 18° |
| 2026-04-13 21:46 | 10.30534 | -70.13862 | 25909 ft | 448 kts | 35° |
| 2026-04-13 21:46 | 10.32748 | -70.11604 | 26216 ft | 454 kts | 52° |
| 2026-04-13 21:46 | 10.34260 | -70.08817 | 26529 ft | 458 kts | 69° |
| 2026-04-13 21:47 | 10.34984 | -70.05683 | 26842 ft | 460 kts | 83° |
| 2026-04-13 21:47 | 10.35294 | -70.02425 | 26951 ft | 469 kts | 85° |
| 2026-04-13 21:47 | 10.35539 | -69.99115 | 26948 ft | 479 kts | 86° |
| 2026-04-13 21:47 | 10.35784 | -69.95666 | 26949 ft | 490 kts | 86° |
| 2026-04-13 21:48 | 10.36027 | -69.92194 | 26948 ft | 500 kts | 86° |
| 2026-04-13 21:48 | 10.36275 | -69.88654 | 26947 ft | 510 kts | 86° |
| 2026-04-13 21:48 | 10.36528 | -69.85029 | 26948 ft | 518 kts | 86° |
| 2026-04-13 21:48 | 10.36782 | -69.81414 | 26930 ft | 504 kts | 86° |
| 2026-04-13 21:49 | 10.37026 | -69.77898 | 26938 ft | 505 kts | 86° |
| 2026-04-13 21:49 | 10.37272 | -69.74347 | 26958 ft | 508 kts | 86° |
| 2026-04-13 21:49 | 10.37524 | -69.70727 | 26983 ft | 511 kts | 86° |
| 2026-04-13 21:49 | 10.37775 | -69.67117 | 27007 ft | 514 kts | 86° |
| 2026-04-13 21:50 | 10.38025 | -69.63506 | 27029 ft | 517 kts | 86° |
| 2026-04-13 21:50 | 10.38277 | -69.59842 | 27054 ft | 520 kts | 86° |
| 2026-04-13 21:50 | 10.38530 | -69.56185 | 27078 ft | 521 kts | 86° |
| 2026-04-13 21:50 | 10.38781 | -69.52535 | 27097 ft | 516 kts | 86° |
| 2026-04-13 21:51 | 10.39028 | -69.48959 | 27095 ft | 498 kts | 86° |
| 2026-04-13 21:51 | 10.39264 | -69.45515 | 27090 ft | 481 kts | 86° |
| 2026-04-13 21:51 | 10.39491 | -69.42210 | 27084 ft | 464 kts | 86° |
| 2026-04-13 21:51 | 10.39713 | -69.38972 | 27082 ft | 452 kts | 86° |
| 2026-04-13 21:52 | 10.39923 | -69.35908 | 27020 ft | 418 kts | 86° |
| 2026-04-13 21:52 | 10.40120 | -69.33029 | 27012 ft | 400 kts | 86° |
| 2026-04-13 21:52 | 10.40313 | -69.30196 | 27029 ft | 405 kts | 86° |
| 2026-04-13 21:52 | 10.40507 | -69.27346 | 27051 ft | 409 kts | 86° |
| 2026-04-13 21:53 | 10.40705 | -69.24430 | 27074 ft | 414 kts | 86° |
| 2026-04-13 21:53 | 10.40901 | -69.21538 | 27098 ft | 418 kts | 86° |
| 2026-04-13 21:53 | 10.41100 | -69.18581 | 27110 ft | 422 kts | 86° |
| 2026-04-13 21:53 | 10.41297 | -69.15591 | 27116 ft | 427 kts | 86° |
| 2026-04-13 21:54 | 10.41495 | -69.12540 | 27118 ft | 432 kts | 86° |
| 2026-04-13 21:54 | 10.41688 | -69.09506 | 27127 ft | 437 kts | 86° |
| 2026-04-13 21:54 | 10.41881 | -69.06429 | 27136 ft | 441 kts | 86° |
| 2026-04-13 21:54 | 10.42074 | -69.03293 | 27145 ft | 446 kts | 86° |
| 2026-04-13 21:55 | 10.42263 | -69.00168 | 27154 ft | 450 kts | 87° |
| 2026-04-13 21:55 | 10.42452 | -68.96973 | 27163 ft | 454 kts | 87° |
| 2026-04-13 21:55 | 10.42639 | -68.93742 | 27171 ft | 459 kts | 87° |
| 2026-04-13 21:55 | 10.42822 | -68.90530 | 27180 ft | 463 kts | 87° |
| 2026-04-13 21:56 | 10.43004 | -68.87254 | 27189 ft | 467 kts | 87° |
| 2026-04-13 21:56 | 10.43184 | -68.83945 | 27199 ft | 471 kts | 87° |
| 2026-04-13 21:56 | 10.43363 | -68.80589 | 27208 ft | 475 kts | 87° |
| 2026-04-13 21:56 | 10.43536 | -68.77250 | 27218 ft | 479 kts | 87° |
| 2026-04-13 21:57 | 10.43708 | -68.73852 | 27228 ft | 483 kts | 87° |
| 2026-04-13 21:57 | 10.43875 | -68.70470 | 27238 ft | 486 kts | 87° |
| 2026-04-13 21:57 | 10.44042 | -68.66992 | 27248 ft | 490 kts | 88° |
| 2026-04-13 21:57 | 10.44202 | -68.63559 | 27257 ft | 492 kts | 88° |
| 2026-04-13 21:58 | 10.44359 | -68.60099 | 27260 ft | 490 kts | 88° |
| 2026-04-13 21:58 | 10.44511 | -68.56650 | 27262 ft | 488 kts | 88° |
| 2026-04-13 21:58 | 10.44658 | -68.53220 | 27265 ft | 486 kts | 88° |
| 2026-04-13 21:58 | 10.44800 | -68.49799 | 27269 ft | 485 kts | 88° |
| 2026-04-13 21:59 | 10.44937 | -68.46394 | 27273 ft | 483 kts | 88° |
| 2026-04-13 21:59 | 10.45071 | -68.42990 | 27278 ft | 481 kts | 88° |
| 2026-04-13 21:59 | 10.45198 | -68.39633 | 27283 ft | 480 kts | 88° |
| 2026-04-13 21:59 | 10.45323 | -68.36239 | 27289 ft | 478 kts | 88° |
| 2026-04-13 22:00 | 10.45443 | -68.32854 | 27288 ft | 477 kts | 88° |
| 2026-04-13 22:00 | 10.45558 | -68.29497 | 27283 ft | 475 kts | 89° |
| 2026-04-13 22:00 | 10.45668 | -68.26174 | 27278 ft | 474 kts | 89° |
| 2026-04-13 22:00 | 10.45775 | -68.22801 | 27274 ft | 473 kts | 89° |
| 2026-04-13 22:01 | 10.45877 | -68.19481 | 27270 ft | 471 kts | 89° |
| 2026-04-13 22:01 | 10.45975 | -68.16196 | 27267 ft | 470 kts | 89° |
| 2026-04-13 22:01 | 10.46069 | -68.12873 | 27264 ft | 469 kts | 89° |
| 2026-04-13 22:01 | 10.46159 | -68.09582 | 27261 ft | 468 kts | 89° |
| 2026-04-13 22:02 | 10.46245 | -68.06299 | 27270 ft | 466 kts | 89° |
| 2026-04-13 22:02 | 10.46326 | -68.03010 | 27275 ft | 465 kts | 89° |
| 2026-04-13 22:02 | 10.46400 | -67.99739 | 27273 ft | 465 kts | 89° |
| 2026-04-13 22:02 | 10.46472 | -67.96481 | 27269 ft | 464 kts | 89° |
| 2026-04-13 22:03 | 10.46518 | -67.94318 | 27269 ft | 463 kts | 89° |